Time;durP1;ratioP1;P1;durP2;ratioP2;P2;SDS_P1;SDS_P2;PMS_P1;PMS_P2;Temp;Humidity;BMP_temperature;BMP_pressure;BME280_temperature;BME280_humidity;BME280_pressure;Samples;Min_cycle;Max_cycle;Signal;HPM_P1;HPM_P2
2023/08/22 17:37:39;;;;;;;3.50;1.95;;;38.80;24.40;;;;;;7712099;22;1366006;-73
2023/08/22 20:44:29;;;;;;;3.50;2.05;;;36.60;26.80;;;;;;7691342;23;20287;-76
2023/08/22 20:47:30;;;;;;;3.92;1.98;;;36.60;26.90;;;;;;7629065;23;20020;-77
2023/08/22 20:50:31;;;;;;;2.72;1.85;;;36.50;26.90;;;;;;7632409;23;20017;-76
2023/08/22 20:53:32;;;;;;;3.28;2.50;;;36.40;27.10;;;;;;7633600;23;20113;-76
2023/08/22 20:56:36;;;;;;;6.00;2.40;;;36.40;27.40;;;;;;7632395;23;20009;-76
2023/08/22 20:59:46;;;;;;;4.32;2.28;;;36.20;27.60;;;;;;7633201;23;20005;-76
2023/08/22 21:02:48;;;;;;;3.88;2.13;;;36.20;27.70;;;;;;7631822;23;20151;-76
2023/08/22 21:05:49;;;;;;;4.10;2.30;;;36.20;27.70;;;;;;7630322;23;20114;-76
2023/08/22 21:08:50;;;;;;;5.38;2.00;;;36.10;27.90;;;;;;7632846;23;20001;-76
2023/08/22 21:11:51;;;;;;;6.72;2.45;;;36.00;28.00;;;;;;7630596;23;20284;-75
2023/08/22 21:14:52;;;;;;;3.00;2.25;;;36.00;28.10;;;;;;7633746;23;20075;-77
2023/08/22 21:17:54;;;;;;;2.80;1.90;;;35.90;28.30;;;;;;7633711;23;20014;-76
2023/08/22 21:20:55;;;;;;;8.52;2.25;;;35.80;28.50;;;;;;7631247;23;20040;-78
2023/08/22 21:23:57;;;;;;;10.18;2.28;;;35.60;28.60;;;;;;7632151;23;20017;-76
2023/08/22 21:26:58;;;;;;;4.47;2.03;;;35.60;28.80;;;;;;7630145;23;20095;-75
2023/08/22 21:29:59;;;;;;;3.63;2.17;;;35.00;28.70;;;;;;7632084;23;20085;-77
2023/08/22 21:33:00;;;;;;;2.85;2.10;;;35.40;29.10;;;;;;7633273;23;20012;-76
2023/08/22 21:36:01;;;;;;;5.97;2.17;;;35.30;29.20;;;;;;7632590;23;20005;-76
2023/08/22 21:39:02;;;;;;;6.25;2.03;;;35.30;29.30;;;;;;7630584;23;20068;-76
2023/08/22 21:42:03;;;;;;;3.20;1.77;;;35.20;29.40;;;;;;7631354;23;20024;-76
2023/08/22 21:45:13;;;;;;;6.75;2.20;;;35.10;29.50;;;;;;7616226;23;20013;-76
2023/08/22 21:48:14;;;;;;;3.60;1.83;;;35.00;29.60;;;;;;7658730;23;20107;-77
2023/08/22 21:51:15;;;;;;;3.35;2.15;;;35.00;29.60;;;;;;7643010;23;20009;-76
2023/08/22 21:54:16;;;;;;;10.20;2.15;;;34.90;29.60;;;;;;7670359;23;20009;-77
2023/08/22 21:57:17;;;;;;;3.50;2.13;;;34.90;29.60;;;;;;7667831;23;20013;-77
2023/08/22 22:00:20;;;;;;;2.28;1.63;;;34.90;29.80;;;;;;7642876;23;20019;-77
2023/08/22 22:03:22;;;;;;;2.33;1.55;;;34.80;29.80;;;;;;7669277;23;20440;-76
2023/08/22 22:06:23;;;;;;;7.88;1.88;;;34.70;29.90;;;;;;7669243;23;20024;-76
2023/08/22 22:09:23;;;;;;;2.25;1.85;;;34.70;30.00;;;;;;7668503;23;20013;-76
2023/08/22 22:12:24;;;;;;;5.65;2.20;;;34.60;30.00;;;;;;7666235;23;20080;-78
2023/08/22 22:15:25;;;;;;;7.93;2.67;;;34.60;30.10;;;;;;7669397;23;20084;-76
2023/08/22 22:18:26;;;;;;;8.38;2.40;;;34.60;30.20;;;;;;7643454;23;20009;-76
2023/08/22 22:21:28;;;;;;;5.78;2.75;;;34.60;30.30;;;;;;7669455;23;20280;-77
2023/08/22 22:24:28;;;;;;;3.88;2.53;;;34.30;30.40;;;;;;7668213;23;20498;-77
2023/08/22 22:27:30;;;;;;;3.25;2.45;;;34.50;30.70;;;;;;7669546;23;20020;-78
2023/08/22 22:30:30;;;;;;;8.30;2.47;;;34.50;30.80;;;;;;7669632;23;20001;-75
2023/08/22 22:33:31;;;;;;;4.13;2.13;;;34.50;30.90;;;;;;7669357;23;20091;-76
2023/08/22 22:36:32;;;;;;;7.30;2.33;;;34.40;30.80;;;;;;7671435;23;20005;-76
2023/08/22 22:39:33;;;;;;;7.50;1.88;;;34.40;31.00;;;;;;7669992;23;20077;-76
2023/08/22 22:42:35;;;;;;;5.43;2.28;;;34.30;30.90;;;;;;7671842;23;20032;-76
2023/08/22 22:45:40;;;;;;;4.53;2.22;;;34.30;31.10;;;;;;7680605;23;20087;-77
2023/08/22 22:48:42;;;;;;;4.43;2.13;;;34.30;31.30;;;;;;7681938;23;20137;-75
2023/08/22 22:51:43;;;;;;;3.72;2.35;;;34.20;31.20;;;;;;7681659;23;20059;-76
2023/08/22 22:54:44;;;;;;;2.25;2.05;;;34.20;31.30;;;;;;7709542;23;20092;-76
2023/08/22 22:57:46;;;;;;;3.72;2.47;;;34.20;31.40;;;;;;7683848;23;20054;-76
2023/08/22 23:00:47;;;;;;;3.95;2.22;;;34.00;31.50;;;;;;7681644;23;20354;-77
2023/08/22 23:03:48;;;;;;;6.70;2.92;;;34.10;31.70;;;;;;7682289;23;20013;-77
2023/08/22 23:06:49;;;;;;;6.93;2.60;;;34.10;31.80;;;;;;7682326;23;20001;-76
2023/08/22 23:09:50;;;;;;;4.60;2.38;;;34.10;31.90;;;;;;7682637;23;20016;-77
2023/08/22 23:12:51;;;;;;;2.88;2.35;;;34.00;32.00;;;;;;7681668;23;20020;-76
2023/08/22 23:15:52;;;;;;;3.83;2.67;;;34.00;32.00;;;;;;7708680;23;20024;-77
2023/08/22 23:18:53;;;;;;;5.78;2.55;;;34.00;32.10;;;;;;7681819;23;20023;-77
2023/08/22 23:21:53;;;;;;;4.25;2.63;;;33.90;32.20;;;;;;7682080;23;20106;-77
2023/08/22 23:24:54;;;;;;;4.18;2.35;;;33.80;32.30;;;;;;7708746;23;20016;-76
2023/08/22 23:27:55;;;;;;;3.42;2.35;;;33.70;32.40;;;;;;7681854;23;20012;-77
2023/08/22 23:30:56;;;;;;;6.32;2.30;;;33.70;32.40;;;;;;7681221;23;20125;-76
2023/08/22 23:33:58;;;;;;;9.80;3.00;;;33.60;32.40;;;;;;7708118;23;20177;-76
2023/08/22 23:37:00;;;;;;;8.38;2.75;;;33.50;32.40;;;;;;7708605;23;20009;-76
2023/08/22 23:40:21;;;;;;;5.97;2.47;;;33.50;32.50;;;;;;7681589;23;20326;-75
2023/08/22 23:43:21;;;;;;;5.00;2.60;;;33.40;32.60;;;;;;7681802;23;20358;-76
2023/08/22 23:46:22;;;;;;;5.10;2.40;;;33.30;32.60;;;;;;7708265;23;20020;-78
2023/08/22 23:49:23;;;;;;;4.22;2.75;;;33.20;32.60;;;;;;7680955;23;20035;-75
2023/08/22 23:52:24;;;;;;;4.00;2.30;;;33.20;32.60;;;;;;7681400;23;20032;-75
2023/08/22 23:55:25;;;;;;;5.80;2.33;;;33.20;32.70;;;;;;7708314;23;20005;-76
2023/08/22 23:58:26;;;;;;;4.65;2.67;;;33.10;32.80;;;;;;7708555;23;20012;-76
